createdAt,value
2023-02-17T00:02:20.781Z,64.19
2023-02-17T00:04:48.788Z,64.18
2023-02-17T00:07:16.686Z,64.55
2023-02-17T00:09:44.601Z,64.32
2023-02-17T00:12:12.579Z,64.23
2023-02-17T00:14:41.958Z,64.50
2023-02-17T00:17:09.881Z,64.33
2023-02-17T00:19:37.763Z,64.09
2023-02-17T00:22:05.662Z,64.59
2023-02-17T00:24:33.776Z,64.64
2023-02-17T00:27:01.679Z,64.42
2023-02-17T00:29:29.576Z,64.27
2023-02-17T00:31:58.914Z,64.37
2023-02-17T00:34:28.144Z,64.26
2023-02-17T00:36:56.063Z,64.09
2023-02-17T00:39:23.930Z,64.29
2023-02-17T00:41:51.846Z,64.19
2023-02-17T00:44:20.476Z,64.41
2023-02-17T00:46:48.391Z,64.24
2023-02-17T00:49:19.102Z,64.36
2023-02-17T00:51:47.092Z,64.28
2023-02-17T00:54:15.004Z,64.13
2023-02-17T00:56:42.979Z,64.35
2023-02-17T00:59:10.990Z,64.25
2023-02-17T01:01:39.030Z,64.32
2023-02-17T01:04:06.952Z,64.31
2023-02-17T01:06:36.903Z,64.28
2023-02-17T01:09:05.131Z,64.19
2023-02-17T01:11:33.394Z,64.47
2023-02-17T01:14:01.453Z,64.18
2023-02-17T01:16:30.178Z,63.97
2023-02-17T01:18:58.089Z,64.08
2023-02-17T01:21:27.113Z,64.53
2023-02-17T01:23:57.158Z,64.21
2023-02-17T01:26:25.880Z,64.39
2023-02-17T01:28:53.915Z,64.10
2023-02-17T01:31:22.157Z,64.47
2023-02-17T01:33:50.171Z,64.35
2023-02-17T01:36:18.863Z,64.07
2023-02-17T01:38:47.503Z,64.35
2023-02-17T01:41:17.418Z,64.18
2023-02-17T01:44:00.273Z,64.52
2023-02-17T01:46:28.217Z,64.55
2023-02-17T01:48:56.096Z,64.46
2023-02-17T01:51:25.052Z,64.44
2023-02-17T01:53:57.227Z,64.34
2023-02-17T01:56:26.467Z,64.51
2023-02-17T01:58:56.764Z,64.53
2023-02-17T02:01:24.756Z,64.87
2023-02-17T02:03:53.012Z,64.77
2023-02-17T02:06:22.532Z,65.02
2023-02-17T02:08:52.544Z,64.77
2023-02-17T02:11:20.450Z,65.03
2023-02-17T02:13:52.452Z,65.06
2023-02-17T02:16:22.908Z,65.09
2023-02-17T02:18:54.708Z,64.97
2023-02-17T02:21:42.137Z,65.07
2023-02-17T02:24:42.358Z,65.20
2023-02-17T02:27:30.607Z,65.16
2023-02-17T02:30:10.762Z,65.32
2023-02-17T02:33:06.069Z,65.23
2023-02-17T02:35:37.985Z,65.10
2023-02-17T02:38:07.826Z,65.24
2023-02-17T02:40:37.386Z,65.25
2023-02-17T02:43:05.336Z,65.02
2023-02-17T02:45:35.040Z,65.25
2023-02-17T02:48:03.222Z,65.31
2023-02-17T02:50:39.495Z,65.10
2023-02-17T02:53:21.877Z,65.34
2023-02-17T02:55:53.969Z,65.28
2023-02-17T02:58:22.825Z,65.32
2023-02-17T03:00:54.536Z,65.10
2023-02-17T03:03:26.042Z,65.24
2023-02-17T03:05:57.307Z,65.38
2023-02-17T03:08:27.743Z,65.36
2023-02-17T03:10:55.684Z,65.23
2023-02-17T03:13:23.596Z,65.34
2023-02-17T03:15:51.495Z,65.40
2023-02-17T03:18:19.346Z,65.18
2023-02-17T03:20:49.724Z,65.15
2023-02-17T03:23:19.064Z,65.28
2023-02-17T03:25:47.642Z,65.31
2023-02-17T03:28:15.570Z,65.19
2023-02-17T03:30:43.488Z,65.10
2023-02-17T03:33:11.340Z,65.35
2023-02-17T03:35:39.221Z,65.08
2023-02-17T03:38:07.095Z,65.50
2023-02-17T03:40:36.347Z,65.00
2023-02-17T03:43:04.237Z,65.16
2023-02-17T03:45:32.099Z,65.40
2023-02-17T03:48:00.014Z,65.33
2023-02-17T03:50:28.023Z,65.18
2023-02-17T03:52:55.895Z,65.26
2023-02-17T03:55:23.965Z,65.08
2023-02-17T03:57:53.275Z,65.18
2023-02-17T04:00:21.825Z,65.33
2023-02-17T04:02:49.710Z,65.36
2023-02-17T04:05:17.756Z,65.40
2023-02-17T04:07:45.627Z,65.38
2023-02-17T04:10:16.390Z,65.14
2023-02-17T04:12:44.297Z,65.09
2023-02-17T04:15:13.554Z,65.16
2023-02-17T04:17:41.415Z,65.10
2023-02-17T04:20:10.054Z,65.13
2023-02-17T04:22:37.967Z,65.43
2023-02-17T04:25:06.204Z,65.49
2023-02-17T04:27:34.094Z,65.33
2023-02-17T04:30:02.230Z,65.09
2023-02-17T04:32:31.984Z,65.40
2023-02-17T04:34:59.855Z,65.14
2023-02-17T04:37:27.828Z,65.45
2023-02-17T04:39:55.701Z,65.15
2023-02-17T04:42:23.556Z,65.32
2023-02-17T04:44:51.450Z,65.17
2023-02-17T04:47:19.393Z,65.16
2023-02-17T04:49:48.671Z,65.10
2023-02-17T04:52:16.608Z,65.44
2023-02-17T04:54:44.504Z,65.33
2023-02-17T04:57:12.426Z,65.17
2023-02-17T04:59:40.331Z,65.21
2023-02-17T05:02:08.230Z,65.08
2023-02-17T05:04:36.173Z,65.16
2023-02-17T05:07:05.406Z,65.01
2023-02-17T05:09:33.310Z,65.40
2023-02-17T05:12:03.057Z,65.58
2023-02-17T05:14:30.943Z,65.21
2023-02-17T05:16:58.816Z,65.66
2023-02-17T05:19:26.718Z,65.64
2023-02-17T05:21:54.619Z,65.40
2023-02-17T05:24:23.894Z,65.44
2023-02-17T05:26:51.880Z,65.32
2023-02-17T05:29:19.792Z,65.59
2023-02-17T05:31:47.783Z,65.31
2023-02-17T05:34:15.699Z,65.66
2023-02-17T05:36:43.564Z,65.42
2023-02-17T05:39:11.450Z,65.38
2023-02-17T05:41:40.759Z,65.50
2023-02-17T05:44:08.599Z,65.41
2023-02-17T05:46:36.533Z,65.42
2023-02-17T05:49:04.484Z,65.41
2023-02-17T05:51:32.330Z,65.49
2023-02-17T05:54:00.234Z,65.71
2023-02-17T05:56:28.153Z,65.31
2023-02-17T05:58:57.425Z,65.47
2023-02-17T06:01:25.311Z,65.50
2023-02-17T06:03:53.151Z,65.45
2023-02-17T06:06:21.046Z,65.37
2023-02-17T06:08:48.939Z,65.48
2023-02-17T06:11:16.791Z,65.33
2023-02-17T06:13:44.699Z,65.53
2023-02-17T06:16:14.083Z,65.28
2023-02-17T06:18:42.023Z,65.25
2023-02-17T06:21:09.872Z,65.50
2023-02-17T06:23:37.770Z,65.14
2023-02-17T06:26:06.080Z,65.26
2023-02-17T06:28:35.146Z,65.26
2023-02-17T06:31:03.229Z,65.63
2023-02-17T06:33:32.581Z,65.54
2023-02-17T06:36:00.435Z,65.72
2023-02-17T06:38:28.487Z,65.54
2023-02-17T06:40:56.414Z,65.35
2023-02-17T06:43:24.307Z,65.49
2023-02-17T06:45:52.228Z,65.56
2023-02-17T06:48:20.097Z,65.31
2023-02-17T06:50:50.088Z,65.42
2023-02-17T06:53:17.986Z,65.62
2023-02-17T06:55:45.867Z,65.35
2023-02-17T06:58:13.730Z,65.20
2023-02-17T07:00:41.630Z,65.45
2023-02-17T07:03:09.580Z,65.23
2023-02-17T07:05:37.540Z,65.55
2023-02-17T07:08:07.204Z,65.59
2023-02-17T07:10:35.150Z,65.43
2023-02-17T07:13:03.019Z,65.38
2023-02-17T07:15:30.964Z,65.62
2023-02-17T07:17:58.872Z,65.30
2023-02-17T07:20:26.764Z,65.77
2023-02-17T07:22:54.709Z,65.51
2023-02-17T07:25:23.950Z,65.71
2023-02-17T07:27:51.854Z,65.65
2023-02-17T07:30:19.858Z,65.66
2023-02-17T07:32:47.695Z,65.79
2023-02-17T07:35:15.565Z,65.68
2023-02-17T07:37:43.376Z,65.92
2023-02-17T07:40:11.999Z,66.02
2023-02-17T07:42:41.268Z,65.67
2023-02-17T07:45:09.893Z,66.05
2023-02-17T07:47:37.853Z,65.99
2023-02-17T07:50:06.790Z,65.96
2023-02-17T07:52:34.659Z,65.78
2023-02-17T07:55:02.575Z,65.87
2023-02-17T07:57:30.826Z,65.82
2023-02-17T08:00:00.159Z,66.00
2023-02-17T08:02:28.091Z,66.17
2023-02-17T08:04:55.934Z,66.20
2023-02-17T08:07:23.844Z,65.90
2023-02-17T08:10:09.188Z,65.94
2023-02-17T08:12:54.401Z,66.22
2023-02-17T08:15:23.933Z,65.97
2023-02-17T08:17:53.302Z,66.28
2023-02-17T08:20:21.503Z,65.93
2023-02-17T08:22:49.422Z,66.16
2023-02-17T08:25:17.406Z,66.18
2023-02-17T08:27:45.401Z,66.29
2023-02-17T08:30:13.955Z,66.00
2023-02-17T08:32:43.282Z,66.07
2023-02-17T08:35:11.269Z,66.11
2023-02-17T08:37:39.247Z,66.31
2023-02-17T08:40:08.568Z,66.25
2023-02-17T08:42:36.960Z,66.33
2023-02-17T08:45:05.342Z,66.27
2023-02-17T08:47:33.553Z,66.28
2023-02-17T08:50:02.932Z,66.18
2023-02-17T08:52:30.877Z,66.32
2023-02-17T08:54:58.790Z,65.95
2023-02-17T08:57:26.676Z,66.00
2023-02-17T08:59:54.680Z,66.01
2023-02-17T09:02:22.544Z,66.07
2023-02-17T09:04:50.534Z,66.30
2023-02-17T09:07:19.901Z,66.24
2023-02-17T09:09:47.899Z,66.26
2023-02-17T09:12:16.053Z,65.95
2023-02-17T09:14:43.971Z,66.26
2023-02-17T09:17:11.891Z,66.16
2023-02-17T09:19:40.909Z,66.12
2023-02-17T09:22:08.795Z,65.96
2023-02-17T09:24:40.114Z,66.36
2023-02-17T09:27:08.138Z,66.35
2023-02-17T09:29:37.547Z,66.10
2023-02-17T09:32:08.097Z,65.98
2023-02-17T09:34:37.118Z,66.35
2023-02-17T09:37:05.246Z,66.03
2023-02-17T09:39:33.396Z,66.22
2023-02-17T09:42:02.697Z,65.98
2023-02-17T09:44:33.859Z,66.15
2023-02-17T09:47:03.382Z,66.30
2023-02-17T09:49:34.241Z,66.07
2023-02-17T09:52:04.299Z,66.13
2023-02-17T09:54:35.625Z,65.80
2023-02-17T09:57:05.207Z,66.16
2023-02-17T09:59:35.517Z,66.11
2023-02-17T10:02:06.256Z,65.80
2023-02-17T10:04:36.535Z,65.90
2023-02-17T10:07:08.578Z,65.94
2023-02-17T10:09:39.616Z,66.12
2023-02-17T10:12:10.696Z,65.96
2023-02-17T10:14:41.276Z,65.83
2023-02-17T10:17:11.584Z,65.75
2023-02-17T10:19:42.587Z,65.72
2023-02-17T10:22:14.010Z,66.12
2023-02-17T10:24:41.985Z,66.02
2023-02-17T10:27:23.409Z,66.20
2023-02-17T10:29:54.860Z,66.10
2023-02-17T10:32:24.354Z,65.76
2023-02-17T10:34:59.597Z,66.04
2023-02-17T10:37:31.070Z,65.99
2023-02-17T10:40:01.464Z,65.83
2023-02-17T10:42:32.155Z,65.76
2023-02-17T10:45:01.682Z,65.62
2023-02-17T10:47:29.622Z,65.62
2023-02-17T10:49:57.727Z,65.73
2023-02-17T10:52:37.801Z,65.69
2023-02-17T10:55:21.927Z,65.64
2023-02-17T10:57:53.814Z,65.71
2023-02-17T11:00:22.611Z,65.79
2023-02-17T11:02:51.864Z,65.88
2023-02-17T11:05:24.888Z,65.65
2023-02-17T11:07:57.064Z,65.48
2023-02-17T11:10:26.997Z,65.63
2023-02-17T11:12:58.153Z,65.50
2023-02-17T11:15:28.368Z,65.34
2023-02-17T11:17:56.653Z,65.77
2023-02-17T11:20:33.520Z,65.47
2023-02-17T11:23:04.967Z,65.55
2023-02-17T11:25:33.670Z,65.50
2023-02-17T11:28:03.737Z,65.83
2023-02-17T11:30:32.948Z,65.82
2023-02-17T11:33:01.267Z,65.66
2023-02-17T11:35:45.079Z,65.81
2023-02-17T11:38:14.400Z,65.92
2023-02-17T11:40:42.387Z,65.89
2023-02-17T11:43:19.114Z,65.91
2023-02-17T11:46:00.995Z,65.65
2023-02-17T11:49:07.689Z,65.58
2023-02-17T11:51:42.375Z,65.50
2023-02-17T11:54:16.490Z,65.91
2023-02-17T11:56:47.206Z,65.47
2023-02-17T11:59:32.170Z,65.77
2023-02-17T12:02:15.739Z,65.75
2023-02-17T12:04:46.390Z,65.52
2023-02-17T12:07:22.828Z,65.38
2023-02-17T12:09:54.561Z,65.53
2023-02-17T12:12:27.836Z,65.23
2023-02-17T12:15:03.281Z,65.18
2023-02-17T12:17:36.974Z,65.36
2023-02-17T12:20:09.508Z,65.32
2023-02-17T12:22:41.498Z,65.35
2023-02-17T12:25:25.781Z,65.67
2023-02-17T12:28:06.722Z,65.22
2023-02-17T12:30:41.592Z,65.54
2023-02-17T12:33:26.785Z,65.48
2023-02-17T12:35:55.698Z,65.48
2023-02-17T12:38:26.203Z,65.67
2023-02-17T12:40:56.497Z,65.44
2023-02-17T12:43:26.672Z,65.48
2023-02-17T12:45:57.730Z,65.08
2023-02-17T12:48:28.063Z,65.31
2023-02-17T12:50:57.755Z,64.95
2023-02-17T12:53:28.140Z,65.12
2023-02-17T12:55:58.013Z,65.22
2023-02-17T12:58:26.637Z,65.16
2023-02-17T13:00:58.527Z,65.27
2023-02-17T13:03:26.456Z,65.18
2023-02-17T13:05:58.385Z,64.76
2023-02-17T13:08:28.212Z,64.88
2023-02-17T13:11:01.798Z,64.88
2023-02-17T13:13:30.717Z,64.94
2023-02-17T13:16:08.330Z,65.24
2023-02-17T13:18:37.045Z,65.29
2023-02-17T13:21:17.152Z,64.92
2023-02-17T13:23:45.938Z,64.47
2023-02-17T13:26:28.014Z,64.49
2023-02-17T13:29:07.239Z,64.70
2023-02-17T13:31:45.643Z,64.86
2023-02-17T13:34:23.886Z,64.54
2023-02-17T13:36:51.772Z,64.29
2023-02-17T13:39:32.774Z,64.67
2023-02-17T13:42:01.180Z,64.58
2023-02-17T13:44:29.889Z,64.36
2023-02-17T13:47:01.275Z,64.47
2023-02-17T13:49:32.892Z,64.73
2023-02-17T13:52:11.960Z,64.61
2023-02-17T13:54:42.002Z,64.70
2023-02-17T13:57:26.352Z,64.71
2023-02-17T13:59:54.389Z,65.25
2023-02-17T14:02:35.510Z,64.65
2023-02-17T14:05:10.932Z,64.93
2023-02-17T14:07:39.366Z,64.90
2023-02-17T14:10:20.638Z,64.75
2023-02-17T14:12:49.907Z,64.47
2023-02-17T14:15:18.276Z,64.74
2023-02-17T14:17:47.583Z,64.78
2023-02-17T14:20:32.705Z,64.85
2023-02-17T14:23:04.221Z,65.14
2023-02-17T14:25:33.738Z,64.80
2023-02-17T14:28:01.593Z,64.89
2023-02-17T14:30:30.915Z,64.97
2023-02-17T14:33:19.858Z,64.75
2023-02-17T14:35:51.511Z,64.91
2023-02-17T14:38:23.059Z,64.67
2023-02-17T14:40:50.992Z,64.80
2023-02-17T14:43:18.888Z,64.50
2023-02-17T14:45:46.871Z,64.72
2023-02-17T14:48:16.330Z,64.76
2023-02-17T14:50:44.282Z,64.88
2023-02-17T14:53:14.429Z,64.93
2023-02-17T14:55:45.455Z,64.67
2023-02-17T14:58:15.500Z,64.75
2023-02-17T15:00:43.383Z,64.86
2023-02-17T15:03:11.494Z,65.22
2023-02-17T15:05:40.787Z,65.26
2023-02-17T15:08:10.818Z,65.25
2023-02-17T15:10:39.929Z,65.11
2023-02-17T15:13:07.918Z,65.04
2023-02-17T15:15:39.254Z,65.06
2023-02-17T15:18:07.197Z,65.05
2023-02-17T15:20:35.126Z,65.19
2023-02-17T15:23:04.408Z,64.98
2023-02-17T15:25:32.541Z,64.96
2023-02-17T15:28:00.438Z,65.14
2023-02-17T15:30:28.630Z,65.08
2023-02-17T15:32:56.571Z,65.31
2023-02-17T15:35:25.734Z,65.06
2023-02-17T15:37:53.678Z,65.16
2023-02-17T15:40:24.010Z,65.26
2023-02-17T15:42:54.326Z,65.02
2023-02-17T15:45:22.349Z,65.26
2023-02-17T15:47:50.664Z,65.25
2023-02-17T15:50:20.700Z,64.99
2023-02-17T15:52:49.049Z,65.45
2023-02-17T15:55:17.228Z,65.08
2023-02-17T15:57:48.013Z,65.40
2023-02-17T16:00:24.106Z,65.35
2023-02-17T16:02:52.176Z,65.39
2023-02-17T16:05:21.351Z,65.25
2023-02-17T16:07:49.276Z,65.38
2023-02-17T16:10:18.526Z,65.59
2023-02-17T16:12:47.812Z,65.73
2023-02-17T16:15:16.886Z,65.49
2023-02-17T16:17:44.806Z,65.21
2023-02-17T16:20:15.852Z,65.54
2023-02-17T16:22:44.394Z,65.78
2023-02-17T16:25:12.336Z,65.69
2023-02-17T16:27:40.279Z,65.72
2023-02-17T16:30:21.113Z,65.43
2023-02-17T16:32:49.120Z,65.55
2023-02-17T16:35:17.941Z,65.38
2023-02-17T16:37:50.316Z,65.81
2023-02-17T16:40:18.843Z,65.45
2023-02-17T16:42:46.761Z,65.49
2023-02-17T16:45:20.157Z,65.42
2023-02-17T16:47:49.539Z,65.95
2023-02-17T16:50:26.645Z,65.58
2023-02-17T16:52:55.237Z,65.89
2023-02-17T16:55:24.558Z,66.04
2023-02-17T16:57:52.484Z,65.67
2023-02-17T17:00:23.087Z,65.82
2023-02-17T17:02:51.274Z,65.80
2023-02-17T17:05:19.528Z,65.79
2023-02-17T17:07:47.534Z,65.80
2023-02-17T17:10:17.487Z,65.95
2023-02-17T17:12:45.570Z,65.88
2023-02-17T17:15:13.672Z,65.76
2023-02-17T17:17:44.187Z,66.02
2023-02-17T17:20:14.938Z,65.60
2023-02-17T17:22:42.887Z,65.89
2023-02-17T17:25:10.829Z,65.61
2023-02-17T17:27:38.745Z,65.94
2023-02-17T17:30:07.573Z,65.97
2023-02-17T17:32:35.498Z,65.88
2023-02-17T17:35:04.850Z,65.87
2023-02-17T17:37:32.740Z,65.63
2023-02-17T17:40:00.768Z,65.86
2023-02-17T17:42:28.671Z,65.97
2023-02-17T17:44:56.532Z,65.76
2023-02-17T17:47:29.999Z,66.00
2023-02-17T17:49:58.498Z,66.02
2023-02-17T17:52:27.842Z,65.82
2023-02-17T17:54:55.728Z,66.02
2023-02-17T17:57:23.620Z,65.89
2023-02-17T17:59:51.617Z,65.90
2023-02-17T18:02:19.496Z,66.02
2023-02-17T18:04:47.826Z,65.66
2023-02-17T18:07:15.843Z,65.58
2023-02-17T18:09:45.149Z,65.84
2023-02-17T18:12:13.779Z,65.72
2023-02-17T18:14:41.709Z,66.04
2023-02-17T18:17:09.691Z,65.91
2023-02-17T18:19:37.634Z,66.28
2023-02-17T18:22:05.557Z,66.03
2023-02-17T18:24:33.866Z,66.07
2023-02-17T18:27:03.281Z,66.23
2023-02-17T18:29:31.410Z,66.09
2023-02-17T18:32:00.137Z,65.93
2023-02-17T18:34:28.107Z,65.84
2023-02-17T18:36:56.030Z,66.01
2023-02-17T18:39:23.883Z,66.24
2023-02-17T18:41:51.737Z,65.96
2023-02-17T18:44:21.026Z,66.29
2023-02-17T18:46:48.990Z,66.10
2023-02-17T18:49:16.839Z,65.95
2023-02-17T18:51:44.797Z,66.12
2023-02-17T18:54:12.948Z,65.72
2023-02-17T18:56:40.833Z,65.76
2023-02-17T18:59:08.707Z,65.89
2023-02-17T19:01:39.762Z,66.17
2023-02-17T19:04:09.617Z,66.16
2023-02-17T19:06:37.573Z,65.95
2023-02-17T19:09:05.464Z,66.15
2023-02-17T19:11:33.590Z,66.19
2023-02-17T19:14:01.663Z,65.96
2023-02-17T19:16:30.489Z,66.11
2023-02-17T19:18:59.837Z,66.29
2023-02-17T19:21:27.754Z,66.36
2023-02-17T19:23:55.761Z,66.41
2023-02-17T19:26:23.736Z,66.13
2023-02-17T19:28:51.640Z,66.01
2023-02-17T19:31:20.513Z,66.27
2023-02-17T19:33:48.639Z,66.30
2023-02-17T19:36:19.125Z,66.18
2023-02-17T19:38:47.178Z,66.29
2023-02-17T19:41:15.364Z,66.15
2023-02-17T19:43:43.413Z,66.22
2023-02-17T19:46:12.375Z,66.30
2023-02-17T19:48:40.315Z,66.46
2023-02-17T19:51:08.983Z,66.42
2023-02-17T19:53:38.230Z,66.54
2023-02-17T19:56:11.951Z,66.30
2023-02-17T19:58:40.512Z,66.51
2023-02-17T20:01:09.087Z,66.23
2023-02-17T20:03:37.044Z,66.32
2023-02-17T20:06:09.660Z,66.20
2023-02-17T20:08:39.071Z,66.59
2023-02-17T20:11:07.967Z,66.48
2023-02-17T20:13:45.217Z,66.16
2023-02-17T20:16:14.158Z,66.35
2023-02-17T20:18:42.776Z,66.62
2023-02-17T20:21:10.755Z,66.27
2023-02-17T20:23:39.927Z,66.49
2023-02-17T20:26:08.493Z,66.37
2023-02-17T20:28:36.670Z,66.40
2023-02-17T20:31:04.616Z,66.66
2023-02-17T20:33:32.515Z,66.48
2023-02-17T20:36:00.696Z,66.65
2023-02-17T20:38:28.620Z,66.69
2023-02-17T20:40:57.860Z,66.71
2023-02-17T20:43:25.663Z,66.35
2023-02-17T20:45:53.653Z,66.69
2023-02-17T20:48:21.831Z,66.48
2023-02-17T20:50:50.042Z,66.69
2023-02-17T20:53:17.925Z,66.36
2023-02-17T20:55:46.175Z,66.71
2023-02-17T20:58:15.355Z,66.73
2023-02-17T21:00:43.285Z,66.43
2023-02-17T21:03:11.273Z,66.64
2023-02-17T21:05:39.211Z,66.60
2023-02-17T21:08:07.185Z,66.40
2023-02-17T21:10:35.058Z,66.42
2023-02-17T21:13:02.940Z,66.35
2023-02-17T21:15:32.177Z,66.41
2023-02-17T21:18:00.066Z,66.50
2023-02-17T21:20:28.032Z,66.55
2023-02-17T21:22:55.909Z,66.58
2023-02-17T21:25:23.840Z,66.48
2023-02-17T21:27:51.780Z,66.63
2023-02-17T21:30:20.004Z,66.31
2023-02-17T21:32:49.284Z,66.28
2023-02-17T21:35:17.338Z,66.27
2023-02-17T21:37:45.219Z,66.55
2023-02-17T21:40:13.643Z,66.13
2023-02-17T21:42:59.160Z,66.04
2023-02-17T21:45:27.179Z,65.98
2023-02-17T21:47:56.450Z,66.17
2023-02-17T21:50:24.565Z,66.20
2023-02-17T21:52:53.174Z,65.63
2023-02-17T21:55:21.131Z,65.53
2023-02-17T21:57:49.056Z,65.39
2023-02-17T22:00:17.938Z,65.58
2023-02-17T22:02:45.920Z,65.52
2023-02-17T22:05:15.198Z,65.59
2023-02-17T22:07:43.070Z,65.69
2023-02-17T22:10:11.335Z,65.73
2023-02-17T22:12:39.261Z,65.65
2023-02-17T22:15:07.818Z,65.59
2023-02-17T22:17:35.792Z,65.47
2023-02-17T22:20:04.714Z,65.67
2023-02-17T22:22:34.019Z,65.40
2023-02-17T22:25:01.934Z,65.51
2023-02-17T22:27:29.830Z,65.67
2023-02-17T22:29:57.875Z,65.29
2023-02-17T22:32:25.934Z,65.45
2023-02-17T22:34:53.908Z,65.24
2023-02-17T22:37:21.902Z,65.17
2023-02-17T22:39:53.229Z,64.88
2023-02-17T22:42:21.156Z,65.06
2023-02-17T22:44:49.209Z,64.96
2023-02-17T22:47:17.149Z,64.60
2023-02-17T22:49:45.069Z,64.69
2023-02-17T22:52:12.933Z,64.84
2023-02-17T22:54:41.037Z,64.26
2023-02-17T22:57:10.314Z,64.12
2023-02-17T22:59:38.205Z,64.00
2023-02-17T23:02:06.068Z,63.84
2023-02-17T23:04:33.986Z,63.89
2023-02-17T23:07:01.922Z,63.51
2023-02-17T23:09:29.805Z,63.64
2023-02-17T23:11:58.464Z,63.08
2023-02-17T23:14:29.186Z,62.93
2023-02-17T23:16:59.195Z,62.71
2023-02-17T23:19:27.163Z,62.81
2023-02-17T23:21:56.761Z,62.68
2023-02-17T23:24:24.943Z,62.13
2023-02-17T23:26:52.830Z,62.16
2023-02-17T23:29:20.745Z,62.02
2023-02-17T23:31:50.115Z,62.06
2023-02-17T23:34:18.064Z,61.84
2023-02-17T23:36:46.185Z,61.57
2023-02-17T23:39:14.081Z,61.61
2023-02-17T23:41:41.962Z,61.52
2023-02-17T23:44:10.843Z,61.37
2023-02-17T23:46:39.120Z,61.29
2023-02-17T23:49:08.392Z,61.37
2023-02-17T23:51:36.260Z,61.37
2023-02-17T23:54:04.322Z,61.40
2023-02-17T23:56:32.994Z,60.95
2023-02-17T23:59:01.271Z,60.75
